Time;durP1;ratioP1;P1;durP2;ratioP2;P2;SDS_P1;SDS_P2;PMS_P1;PMS_P2;Temp;Humidity;BMP_temperature;BMP_pressure;BME280_temperature;BME280_humidity;BME280_pressure;Samples;Min_cycle;Max_cycle;Signal;HPM_P1;HPM_P2
2023/05/27 00:01:19;;;;;;;6.28;2.53;;;;;16.90;102838.00;;;;5089451;28;20568;-80
2023/05/27 00:03:46;;;;;;;5.40;2.08;;;;;16.90;102836.00;;;;5091034;28;20198;-79
2023/05/27 00:06:14;;;;;;;5.82;1.77;;;;;16.80;102836.00;;;;5089711;28;20208;-80
2023/05/27 00:08:41;;;;;;;4.93;2.05;;;;;16.80;102828.00;;;;5090277;28;20293;-80
2023/05/27 00:11:10;;;;;;;3.80;1.63;;;;;16.70;102834.00;;;;5090208;28;20206;-79
2023/05/27 00:13:37;;;;;;;5.57;2.67;;;;;16.70;102835.00;;;;5090212;28;20218;-79
2023/05/27 00:16:05;;;;;;;7.43;1.90;;;;;16.70;102839.00;;;;5089062;28;20202;-79
2023/05/27 00:18:32;;;;;;;4.35;2.00;;;;;16.70;102837.00;;;;5089786;28;20206;-80
2023/05/27 00:21:00;;;;;;;8.35;2.13;;;;;16.60;102838.00;;;;5089293;28;20206;-80
2023/05/27 00:23:27;;;;;;;9.35;2.42;;;;;16.60;102838.00;;;;5089815;28;20547;-80
2023/05/27 00:25:54;;;;;;;6.53;2.10;;;;;16.60;102839.00;;;;5089810;28;20202;-80
2023/05/27 00:28:23;;;;;;;6.60;1.90;;;;;16.50;102843.00;;;;5089480;28;20564;-80
2023/05/27 00:30:50;;;;;;;4.55;1.63;;;;;16.50;102827.00;;;;5089054;28;20543;-80
2023/05/27 00:33:18;;;;;;;6.22;2.10;;;;;16.40;102826.00;;;;5088049;28;20241;-80
2023/05/27 00:35:45;;;;;;;5.78;1.83;;;;;16.40;102827.00;;;;5089466;28;20223;-80
2023/05/27 00:38:12;;;;;;;6.55;2.20;;;;;16.40;102830.00;;;;5088863;28;20191;-80
2023/05/27 00:40:41;;;;;;;8.50;2.10;;;;;16.30;102820.00;;;;5089394;28;20202;-80
2023/05/27 00:43:08;;;;;;;8.05;2.42;;;;;16.30;102821.00;;;;5088570;28;20197;-80
2023/05/27 00:45:37;;;;;;;8.30;2.22;;;;;16.30;102815.00;;;;5088630;28;20210;-79
2023/05/27 00:48:05;;;;;;;8.52;2.25;;;;;16.30;102818.00;;;;5088705;28;20210;-79
2023/05/27 00:50:32;;;;;;;9.27;2.40;;;;;16.20;102819.00;;;;5088804;28;20225;-79
2023/05/27 00:53:00;;;;;;;7.05;2.15;;;;;16.20;102814.00;;;;5088555;28;20680;-80
2023/05/27 00:55:28;;;;;;;4.88;1.80;;;;;16.20;102812.00;;;;5089050;28;20500;-80
2023/05/27 00:57:55;;;;;;;6.60;2.15;;;;;16.20;102809.00;;;;5088589;28;20202;-80
2023/05/27 01:00:23;;;;;;;3.63;1.58;;;;;16.20;102810.00;;;;5087524;28;20202;-80
2023/05/27 01:02:52;;;;;;;10.32;2.28;;;;;16.10;102795.00;;;;5088364;28;20206;-79
2023/05/27 01:05:21;;;;;;;4.78;1.88;;;;;16.10;102798.00;;;;5088494;28;20210;-80
2023/05/27 01:08:03;;;;;;;6.22;1.88;;;;;16.00;102797.00;;;;5088518;28;20198;-80
2023/05/27 01:10:37;;;;;;;3.47;1.63;;;;;16.10;102791.00;;;;5088254;28;20209;-79
2023/05/27 01:13:11;;;;;;;5.97;1.90;;;;;16.00;102793.00;;;;5086591;28;20210;-80
2023/05/27 01:15:39;;;;;;;4.43;1.90;;;;;16.10;102792.00;;;;5088483;28;20205;-80
2023/05/27 01:18:10;;;;;;;5.80;1.98;;;;;16.00;102790.00;;;;5087905;28;20213;-79
2023/05/27 01:20:40;;;;;;;7.88;2.05;;;;;16.00;102791.00;;;;5087810;28;20198;-80
2023/05/27 01:23:10;;;;;;;8.90;2.28;;;;;16.00;102794.00;;;;5088188;28;20198;-80
2023/05/27 01:25:37;;;;;;;4.60;1.42;;;;;16.00;102797.00;;;;5088576;28;20247;-79
2023/05/27 01:28:05;;;;;;;5.72;2.35;;;;;15.90;102798.00;;;;5087920;28;20213;-80
2023/05/27 01:30:32;;;;;;;4.72;1.77;;;;;15.90;102799.00;;;;5087728;28;20288;-79
2023/05/27 01:33:03;;;;;;;4.50;1.55;;;;;15.90;102798.00;;;;5087429;28;20223;-80
2023/05/27 01:35:35;;;;;;;5.68;1.85;;;;;15.80;102786.00;;;;5088187;28;20208;-80
2023/05/27 01:38:07;;;;;;;7.43;2.10;;;;;15.80;102789.00;;;;5088006;28;20209;-79
2023/05/27 01:40:37;;;;;;;4.70;1.80;;;;;15.80;102794.00;;;;5088459;28;20209;-80
2023/05/27 01:43:06;;;;;;;6.85;2.17;;;;;15.80;102797.00;;;;5088393;28;20530;-80
2023/05/27 01:45:34;;;;;;;9.02;2.78;;;;;15.80;102797.00;;;;5088310;28;20206;-80
2023/05/27 01:48:02;;;;;;;5.50;1.73;;;;;15.80;102795.00;;;;5087449;28;20213;-79
2023/05/27 01:50:30;;;;;;;5.88;1.95;;;;;15.70;102804.00;;;;5087421;28;20764;-80
2023/05/27 01:52:57;;;;;;;7.28;1.88;;;;;15.70;102799.00;;;;5088147;28;20209;-80
2023/05/27 01:55:25;;;;;;;7.18;1.98;;;;;15.70;102803.00;;;;5088526;28;20222;-79
2023/05/27 01:57:53;;;;;;;9.27;2.15;;;;;15.70;102803.00;;;;5087819;28;20219;-79
2023/05/27 02:00:21;;;;;;;7.95;1.88;;;;;15.70;102798.00;;;;5088377;28;20202;-79
2023/05/27 02:02:48;;;;;;;7.25;2.45;;;;;15.60;102799.00;;;;5088528;28;20690;-79
2023/05/27 02:05:15;;;;;;;12.55;2.45;;;;;15.60;102801.00;;;;5088664;28;20206;-79
2023/05/27 02:07:43;;;;;;;11.43;2.30;;;;;15.60;102811.00;;;;5088093;28;20225;-79
2023/05/27 02:10:11;;;;;;;4.30;1.88;;;;;15.60;102810.00;;;;5088226;28;20603;-80
2023/05/27 02:12:38;;;;;;;6.30;1.92;;;;;15.60;102808.00;;;;5088302;28;20205;-79
2023/05/27 02:15:08;;;;;;;7.50;1.92;;;;;15.60;102804.00;;;;5088261;28;20598;-79
2023/05/27 02:17:36;;;;;;;3.75;1.90;;;;;15.60;102810.00;;;;5088150;28;20688;-79
2023/05/27 02:20:04;;;;;;;5.53;2.15;;;;;15.60;102814.00;;;;5087749;28;20664;-80
2023/05/27 02:22:31;;;;;;;10.50;2.78;;;;;15.60;102812.00;;;;5087893;28;20214;-79
2023/05/27 02:24:58;;;;;;;4.90;1.60;;;;;15.50;102810.00;;;;5090639;28;20202;-80
2023/05/27 02:27:26;;;;;;;4.63;1.88;;;;;15.50;102815.00;;;;5092412;28;20205;-79
2023/05/27 02:29:53;;;;;;;5.32;2.05;;;;;15.50;102809.00;;;;5092162;28;20193;-79
2023/05/27 02:32:21;;;;;;;3.85;1.42;;;;;15.50;102807.00;;;;5091445;28;20622;-79
2023/05/27 02:34:49;;;;;;;4.43;1.77;;;;;15.50;102804.00;;;;5092246;28;20249;-79
2023/05/27 02:37:16;;;;;;;4.80;1.92;;;;;15.50;102803.00;;;;5091580;28;20793;-79
2023/05/27 02:39:43;;;;;;;10.23;1.80;;;;;15.50;102801.00;;;;5091817;28;20678;-79
2023/05/27 02:42:10;;;;;;;4.65;1.92;;;;;15.40;102798.00;;;;5092014;28;20201;-79
2023/05/27 02:44:38;;;;;;;7.15;1.67;;;;;15.40;102798.00;;;;5092001;28;20205;-79
2023/05/27 02:47:05;;;;;;;7.57;1.95;;;;;15.40;102790.00;;;;5091128;28;20213;-79
2023/05/27 02:49:34;;;;;;;6.75;2.30;;;;;15.40;102795.00;;;;5091616;28;20229;-79
2023/05/27 02:52:01;;;;;;;4.43;2.17;;;;;15.40;102795.00;;;;5091300;28;20222;-79
2023/05/27 02:54:28;;;;;;;3.60;1.80;;;;;15.40;102797.00;;;;5091813;28;20237;-79
2023/05/27 02:56:56;;;;;;;4.25;2.08;;;;;15.30;102792.00;;;;5091729;28;20210;-79
2023/05/27 02:59:23;;;;;;;3.97;1.77;;;;;15.30;102794.00;;;;5091365;28;20209;-79
2023/05/27 03:01:50;;;;;;;6.32;1.77;;;;;15.30;102789.00;;;;5091505;28;20194;-79
2023/05/27 03:04:17;;;;;;;5.38;1.65;;;;;15.30;102793.00;;;;5090642;28;20202;-79
2023/05/27 03:06:47;;;;;;;4.13;2.25;;;;;15.20;102798.00;;;;5091926;28;20678;-79
2023/05/27 03:09:14;;;;;;;4.85;1.85;;;;;15.20;102797.00;;;;5091343;28;20214;-80
2023/05/27 03:11:42;;;;;;;8.35;1.80;;;;;15.20;102805.00;;;;5092056;28;20289;-79
2023/05/27 03:14:09;;;;;;;6.15;2.45;;;;;15.20;102807.00;;;;5091110;28;20226;-79
2023/05/27 03:16:36;;;;;;;7.95;2.35;;;;;15.20;102799.00;;;;5091390;28;20364;-79
2023/05/27 03:19:04;;;;;;;4.70;1.75;;;;;15.10;102804.00;;;;5090713;28;20202;-79
2023/05/27 03:21:31;;;;;;;6.65;2.42;;;;;15.10;102809.00;;;;5090988;28;20285;-79
2023/05/27 03:24:00;;;;;;;5.60;2.28;;;;;15.10;102807.00;;;;5091329;28;20186;-79
2023/05/27 03:26:28;;;;;;;7.88;2.15;;;;;15.10;102809.00;;;;5091271;28;20208;-79
2023/05/27 03:28:55;;;;;;;4.22;1.67;;;;;15.00;102797.00;;;;5090653;28;20739;-79
2023/05/27 03:31:22;;;;;;;5.72;2.00;;;;;15.00;102794.00;;;;5090548;28;20210;-79
2023/05/27 03:33:50;;;;;;;6.95;2.40;;;;;15.00;102794.00;;;;5090606;28;20198;-79
2023/05/27 03:36:20;;;;;;;4.53;1.90;;;;;15.00;102797.00;;;;5089936;28;20292;-79
2023/05/27 03:38:47;;;;;;;5.43;2.35;;;;;14.90;102789.00;;;;5091374;28;20202;-79
2023/05/27 03:41:16;;;;;;;4.32;1.58;;;;;14.90;102793.00;;;;5090726;28;20198;-79
2023/05/27 03:43:43;;;;;;;5.05;1.83;;;;;14.90;102786.00;;;;5090294;28;20194;-79
2023/05/27 03:46:11;;;;;;;8.88;2.38;;;;;14.80;102793.00;;;;5090452;28;20198;-79
2023/05/27 03:48:38;;;;;;;5.28;2.00;;;;;14.80;102780.00;;;;5090291;28;20202;-79
2023/05/27 03:51:05;;;;;;;5.22;2.13;;;;;14.80;102776.00;;;;5089916;28;20670;-79
2023/05/27 03:53:33;;;;;;;3.90;1.90;;;;;14.80;102770.00;;;;5090604;28;21162;-79
2023/05/27 03:56:00;;;;;;;5.47;1.75;;;;;14.80;102776.00;;;;5089427;28;20587;-79
2023/05/27 03:58:29;;;;;;;5.80;1.98;;;;;14.70;102774.00;;;;5090118;28;20202;-79
2023/05/27 04:00:56;;;;;;;6.38;1.70;;;;;14.70;102768.00;;;;5089889;28;20496;-80
2023/05/27 04:03:23;;;;;;;6.18;1.92;;;;;14.70;102770.00;;;;5089423;28;20666;-79
2023/05/27 04:05:51;;;;;;;3.97;2.08;;;;;14.70;102763.00;;;;5089632;28;20206;-79
2023/05/27 04:08:18;;;;;;;5.13;1.92;;;;;14.70;102768.00;;;;5089915;28;20205;-79
2023/05/27 04:10:45;;;;;;;6.88;2.05;;;;;14.70;102764.00;;;;5089331;28;20213;-80
2023/05/27 04:13:12;;;;;;;4.75;2.08;;;;;14.70;102763.00;;;;5089689;28;20202;-80
2023/05/27 04:15:41;;;;;;;4.03;1.98;;;;;14.60;102762.00;;;;5089925;28;20226;-79
2023/05/27 04:18:09;;;;;;;4.07;1.25;;;;;14.60;102768.00;;;;5090474;28;20230;-79
2023/05/27 04:20:40;;;;;;;3.30;1.55;;;;;14.60;102762.00;;;;5089580;28;20198;-79
2023/05/27 04:23:07;;;;;;;8.82;2.30;;;;;14.60;102762.00;;;;5090586;28;20186;-80
2023/05/27 04:25:35;;;;;;;5.95;2.28;;;;;14.70;102767.00;;;;5090175;28;20209;-80
2023/05/27 04:28:04;;;;;;;5.93;1.75;;;;;14.70;102765.00;;;;5089419;28;20668;-79
2023/05/27 04:30:31;;;;;;;8.95;2.50;;;;;14.70;102768.00;;;;5089889;28;20703;-79
2023/05/27 04:33:00;;;;;;;4.15;1.85;;;;;14.70;102761.00;;;;5087679;28;20222;-79
2023/05/27 04:35:27;;;;;;;5.95;1.92;;;;;14.70;102757.00;;;;5089416;28;20222;-80
2023/05/27 04:37:55;;;;;;;5.25;2.05;;;;;14.70;102762.00;;;;5089614;28;20202;-79
2023/05/27 04:40:22;;;;;;;6.28;1.88;;;;;14.70;102758.00;;;;5089251;28;20205;-79
2023/05/27 04:42:50;;;;;;;6.60;2.17;;;;;14.70;102755.00;;;;5089637;28;20202;-79
2023/05/27 04:45:18;;;;;;;9.18;1.90;;;;;14.80;102760.00;;;;5089655;28;20648;-79
2023/05/27 04:47:45;;;;;;;5.65;1.73;;;;;14.80;102761.00;;;;5090331;28;20198;-79
2023/05/27 04:50:14;;;;;;;4.10;2.17;;;;;14.80;102748.00;;;;5088216;28;20233;-80
2023/05/27 04:52:42;;;;;;;7.50;2.33;;;;;14.80;102759.00;;;;5089457;28;20202;-80
2023/05/27 04:55:11;;;;;;;6.60;2.10;;;;;14.80;102758.00;;;;5088647;28;20674;-80
2023/05/27 04:57:40;;;;;;;5.82;2.15;;;;;14.90;102751.00;;;;5089030;28;20197;-80
2023/05/27 05:00:34;;;;;;;5.95;2.00;;;;;14.90;102754.00;;;;5089152;28;20194;-79
2023/05/27 05:03:02;;;;;;;5.32;1.88;;;;;14.90;102752.00;;;;5089219;28;20206;-80
2023/05/27 05:05:31;;;;;;;5.45;2.35;;;;;14.90;102747.00;;;;5088293;28;20220;-80
2023/05/27 05:07:58;;;;;;;8.30;2.10;;;;;15.00;102755.00;;;;5089114;28;20293;-80
2023/05/27 05:10:26;;;;;;;5.22;2.10;;;;;15.00;102752.00;;;;5088479;28;20205;-80
2023/05/27 05:12:53;;;;;;;7.53;2.42;;;;;15.10;102749.00;;;;5088743;28;20595;-80
2023/05/27 05:15:21;;;;;;;4.70;3.13;;;;;15.10;102750.00;;;;5088395;28;20589;-79
2023/05/27 05:17:48;;;;;;;6.65;2.08;;;;;15.10;102738.00;;;;5088593;28;20198;-81
2023/05/27 05:20:15;;;;;;;3.78;1.88;;;;;15.20;102741.00;;;;5088690;28;20198;-80
2023/05/27 05:22:44;;;;;;;6.38;2.05;;;;;15.20;102737.00;;;;5088657;28;20198;-80
2023/05/27 05:25:12;;;;;;;6.35;2.40;;;;;15.30;102741.00;;;;5087952;28;20194;-80
2023/05/27 05:27:39;;;;;;;8.75;2.00;;;;;15.30;102742.00;;;;5088602;28;20201;-80
2023/05/27 05:30:08;;;;;;;5.40;2.72;;;;;15.40;102744.00;;;;5088596;28;20213;-80
2023/05/27 05:32:35;;;;;;;4.70;2.13;;;;;15.40;102735.00;;;;5088512;28;20241;-80
2023/05/27 05:35:03;;;;;;;8.20;2.10;;;;;15.50;102739.00;;;;5088297;28;20232;-80
2023/05/27 05:37:30;;;;;;;4.82;1.95;;;;;15.50;102724.00;;;;5087642;28;20220;-79
2023/05/27 05:39:58;;;;;;;12.93;2.35;;;;;15.60;102736.00;;;;5088627;28;20288;-80
2023/05/27 05:42:26;;;;;;;7.65;1.88;;;;;15.60;102732.00;;;;5087878;28;20197;-80
2023/05/27 05:44:53;;;;;;;4.93;2.03;;;;;15.70;102734.00;;;;5087219;28;20547;-80
2023/05/27 05:47:20;;;;;;;8.93;2.13;;;;;15.80;102724.00;;;;5085315;28;20671;-80
2023/05/27 05:49:48;;;;;;;12.35;2.50;;;;;15.90;102724.00;;;;5088048;28;20648;-80
2023/05/27 05:52:15;;;;;;;7.85;2.78;;;;;16.00;102727.00;;;;5088009;28;20197;-80
2023/05/27 05:54:44;;;;;;;8.27;2.60;;;;;16.00;102724.00;;;;5088357;28;20209;-79
2023/05/27 05:57:13;;;;;;;4.30;1.77;;;;;16.10;102720.00;;;;5088140;28;20212;-80
2023/05/27 05:59:40;;;;;;;4.72;2.17;;;;;16.20;102719.00;;;;5087547;28;20210;-80
2023/05/27 06:02:07;;;;;;;5.95;1.88;;;;;16.30;102721.00;;;;5088185;28;20569;-80
2023/05/27 06:04:34;;;;;;;8.18;2.00;;;;;16.30;102727.00;;;;5088387;28;20660;-79
2023/05/27 06:07:02;;;;;;;5.13;2.00;;;;;16.40;102717.00;;;;5088235;28;20305;-80
2023/05/27 06:09:30;;;;;;;4.95;1.90;;;;;16.50;102728.00;;;;5088306;28;20256;-80
2023/05/27 06:11:57;;;;;;;6.80;2.25;;;;;16.60;102721.00;;;;5087704;28;20217;-79
2023/05/27 06:14:26;;;;;;;10.15;2.22;;;;;16.60;102717.00;;;;5087608;28;20201;-80
2023/05/27 06:16:53;;;;;;;8.00;2.05;;;;;16.70;102720.00;;;;5087649;28;20229;-80
2023/05/27 06:19:20;;;;;;;5.95;2.00;;;;;16.80;102720.00;;;;5087597;28;20588;-80
2023/05/27 06:21:48;;;;;;;8.15;2.20;;;;;16.90;102724.00;;;;5087883;28;20579;-79
2023/05/27 06:24:15;;;;;;;9.00;2.88;;;;;17.00;102716.00;;;;5087296;28;20557;-80
2023/05/27 06:26:42;;;;;;;5.90;1.92;;;;;17.00;102707.00;;;;5088423;28;20195;-80
2023/05/27 06:29:09;;;;;;;7.18;2.50;;;;;17.10;102701.00;;;;5087107;28;20675;-80
2023/05/27 06:31:38;;;;;;;5.10;1.90;;;;;17.20;102696.00;;;;5087369;28;20635;-80
2023/05/27 06:34:05;;;;;;;7.07;2.08;;;;;17.30;102696.00;;;;5088137;28;20217;-80
2023/05/27 06:36:33;;;;;;;6.72;2.55;;;;;17.40;102692.00;;;;5087162;28;20226;-81
2023/05/27 06:39:00;;;;;;;8.43;2.50;;;;;17.50;102693.00;;;;5088124;28;20682;-81
2023/05/27 06:41:28;;;;;;;6.50;2.70;;;;;17.60;102692.00;;;;5087327;28;20237;-80
2023/05/27 06:43:55;;;;;;;10.57;2.40;;;;;17.60;102702.00;;;;5088285;28;20194;-80
2023/05/27 06:46:22;;;;;;;5.30;2.17;;;;;17.70;102701.00;;;;5087819;28;20199;-79
2023/05/27 06:48:51;;;;;;;8.02;2.60;;;;;17.80;102692.00;;;;5088175;28;20214;-81
2023/05/27 06:51:19;;;;;;;8.13;2.60;;;;;17.90;102696.00;;;;5088029;28;20700;-80
2023/05/27 06:53:46;;;;;;;8.43;2.58;;;;;18.00;102691.00;;;;5087150;28;20210;-80
2023/05/27 06:56:13;;;;;;;7.20;2.38;;;;;18.10;102695.00;;;;5087860;28;20221;-80
2023/05/27 06:58:41;;;;;;;7.10;2.35;;;;;18.20;102680.00;;;;5088050;28;20200;-80
2023/05/27 07:01:08;;;;;;;7.35;2.72;;;;;18.40;102676.00;;;;5087311;28;20202;-81
2023/05/27 07:03:35;;;;;;;9.43;2.83;;;;;18.50;102669.00;;;;5087120;28;20202;-80
2023/05/27 07:06:05;;;;;;;8.00;2.78;;;;;18.50;102673.00;;;;5087384;28;20199;-77
2023/05/27 07:08:32;;;;;;;6.50;2.28;;;;;18.70;102678.00;;;;5088034;28;20194;-80
2023/05/27 07:10:59;;;;;;;9.85;2.70;;;;;18.80;102677.00;;;;5088521;28;20210;-80
2023/05/27 07:13:26;;;;;;;5.20;1.98;;;;;18.90;102668.00;;;;5091427;28;20205;-80
2023/05/27 07:15:54;;;;;;;10.48;2.45;;;;;19.00;102663.00;;;;5091265;28;20226;-82
2023/05/27 07:18:21;;;;;;;5.68;2.55;;;;;19.00;102663.00;;;;5091281;28;20222;-81
2023/05/27 07:20:49;;;;;;;6.90;2.60;;;;;19.20;102667.00;;;;5091154;28;20281;-81
2023/05/27 07:23:17;;;;;;;5.47;2.25;;;;;19.30;102659.00;;;;5091481;28;20198;-81
2023/05/27 07:25:44;;;;;;;5.47;2.42;;;;;19.40;102660.00;;;;5091372;28;20206;-81
2023/05/27 07:28:12;;;;;;;7.50;2.20;;;;;19.50;102655.00;;;;5090396;28;20628;-80
2023/05/27 07:30:39;;;;;;;5.63;2.70;;;;;19.60;102667.00;;;;5091209;28;20669;-81
2023/05/27 07:33:06;;;;;;;4.63;2.10;;;;;19.80;102662.00;;;;5090684;28;20246;-80
2023/05/27 07:35:33;;;;;;;8.38;1.70;;;;;19.90;102662.00;;;;5091243;28;20222;-80
2023/05/27 07:38:02;;;;;;;7.40;2.13;;;;;20.00;102662.00;;;;5070401;28;20210;-81
2023/05/27 07:40:31;;;;;;;5.35;2.50;;;;;20.10;102670.00;;;;5070571;28;20225;-81
2023/05/27 07:42:58;;;;;;;7.60;2.15;;;;;20.20;102665.00;;;;5069868;28;20627;-80
2023/05/27 07:45:25;;;;;;;9.00;2.70;;;;;20.40;102658.00;;;;5082733;28;20217;-80
2023/05/27 07:47:53;;;;;;;6.25;2.92;;;;;20.50;102652.00;;;;5091082;28;20206;-81
2023/05/27 07:50:20;;;;;;;7.15;2.17;;;;;20.70;102652.00;;;;5090954;28;20217;-81
2023/05/27 07:52:47;;;;;;;5.68;2.17;;;;;20.80;102649.00;;;;5091438;28;20705;-80
2023/05/27 07:55:15;;;;;;;6.10;2.40;;;;;20.90;102646.00;;;;5090679;28;20202;-81
2023/05/27 07:57:44;;;;;;;6.07;2.75;;;;;21.00;102641.00;;;;5090492;28;20194;-80
2023/05/27 08:00:12;;;;;;;4.60;1.95;;;;;21.20;102649.00;;;;5090765;28;20263;-81
2023/05/27 08:02:39;;;;;;;6.78;1.98;;;;;21.30;102634.00;;;;5090587;28;20202;-81
2023/05/27 08:05:07;;;;;;;6.10;2.13;;;;;21.40;102638.00;;;;5089663;28;20687;-81
2023/05/27 08:07:35;;;;;;;5.93;2.10;;;;;21.60;102628.00;;;;5090714;28;20214;-80
2023/05/27 08:10:02;;;;;;;8.65;2.75;;;;;21.70;102626.00;;;;5090542;28;20205;-79
2023/05/27 08:12:29;;;;;;;3.97;2.05;;;;;21.80;102641.00;;;;5089636;28;20657;-80
2023/05/27 08:14:58;;;;;;;7.85;2.55;;;;;21.90;102628.00;;;;5090189;28;20206;-80
2023/05/27 08:17:25;;;;;;;8.07;2.78;;;;;22.00;102622.00;;;;5089632;28;20218;-81
2023/05/27 08:19:53;;;;;;;8.82;2.40;;;;;22.10;102615.00;;;;5089816;28;20198;-81
2023/05/27 08:22:20;;;;;;;4.97;2.10;;;;;22.20;102615.00;;;;5089506;28;20202;-82
2023/05/27 08:24:48;;;;;;;6.55;2.35;;;;;22.30;102608.00;;;;5089552;28;20202;-81
2023/05/27 08:27:17;;;;;;;10.70;2.53;;;;;22.40;102616.00;;;;5089775;28;20316;-81
2023/05/27 08:29:44;;;;;;;6.22;2.10;;;;;22.50;102606.00;;;;5089698;28;20209;-78
2023/05/27 08:32:13;;;;;;;5.72;1.80;;;;;22.60;102612.00;;;;5089724;28;20222;-78
2023/05/27 08:34:41;;;;;;;5.88;2.33;;;;;22.70;102601.00;;;;5089744;28;20206;-80
2023/05/27 08:37:08;;;;;;;5.35;2.42;;;;;22.80;102608.00;;;;5089596;28;20222;-78
2023/05/27 08:39:35;;;;;;;6.43;2.60;;;;;22.90;102596.00;;;;5089856;28;20194;-79
2023/05/27 08:42:04;;;;;;;6.75;2.47;;;;;23.00;102594.00;;;;5089632;28;20263;-79
2023/05/27 08:44:31;;;;;;;5.57;2.22;;;;;23.10;102595.00;;;;5088942;28;20206;-78
2023/05/27 08:46:59;;;;;;;7.03;2.30;;;;;23.20;102591.00;;;;5088630;28;20202;-81
2023/05/27 08:49:27;;;;;;;8.35;3.03;;;;;23.30;102586.00;;;;5088758;28;20214;-79
2023/05/27 08:51:57;;;;;;;7.32;2.75;;;;;23.40;102580.00;;;;5088815;28;20194;-78
2023/05/27 08:54:25;;;;;;;6.95;2.38;;;;;23.50;102575.00;;;;5068782;28;20577;-80
2023/05/27 08:56:56;;;;;;;7.53;2.92;;;;;23.60;102574.00;;;;5068416;28;20714;-79
2023/05/27 08:59:24;;;;;;;6.55;2.33;;;;;23.80;102572.00;;;;5067531;28;20682;-79
2023/05/27 09:01:52;;;;;;;6.72;2.85;;;;;23.90;102580.00;;;;5068988;28;20587;-79
2023/05/27 09:04:20;;;;;;;7.35;3.20;;;;;24.00;102567.00;;;;5068604;28;20206;-78
2023/05/27 09:06:48;;;;;;;9.98;2.78;;;;;24.10;102575.00;;;;5074022;28;20206;-79
2023/05/27 09:09:17;;;;;;;12.07;3.40;;;;;24.30;102567.00;;;;5088174;28;20225;-79
2023/05/27 09:11:44;;;;;;;7.47;2.80;;;;;24.40;102561.00;;;;5088516;28;20202;-78
2023/05/27 09:14:20;;;;;;;9.55;2.70;;;;;24.40;102556.00;;;;5088304;28;20202;-79
2023/05/27 09:16:47;;;;;;;7.85;2.58;;;;;24.60;102558.00;;;;5088947;28;20229;-79
2023/05/27 09:19:18;;;;;;;7.93;2.65;;;;;24.60;102563.00;;;;5088197;28;20194;-80
2023/05/27 09:21:46;;;;;;;7.15;2.92;;;;;24.70;102558.00;;;;5087661;28;20198;-80
2023/05/27 09:24:14;;;;;;;6.97;2.58;;;;;24.80;102554.00;;;;5088627;28;20198;-79
2023/05/27 09:26:42;;;;;;;9.00;3.00;;;;;24.90;102559.00;;;;5088419;28;20592;-79
2023/05/27 09:29:10;;;;;;;8.50;2.47;;;;;25.00;102556.00;;;;5087752;28;20206;-79
2023/05/27 09:31:40;;;;;;;8.35;2.28;;;;;25.10;102554.00;;;;5088055;28;20574;-79
2023/05/27 09:34:12;;;;;;;7.80;3.00;;;;;25.30;102554.00;;;;5087375;28;20198;-80
2023/05/27 09:36:44;;;;;;;14.50;3.20;;;;;25.30;102555.00;;;;5088103;28;20229;-79
2023/05/27 09:39:12;;;;;;;11.25;3.13;;;;;25.50;102549.00;;;;5088340;28;20213;-80
2023/05/27 09:41:41;;;;;;;5.75;2.80;;;;;25.50;102548.00;;;;5087676;28;20190;-79
2023/05/27 09:44:09;;;;;;;5.47;2.70;;;;;25.60;102544.00;;;;5087702;28;20570;-79
2023/05/27 09:46:37;;;;;;;9.18;2.75;;;;;25.70;102548.00;;;;5088547;28;20615;-79
2023/05/27 09:49:05;;;;;;;4.85;2.17;;;;;25.80;102540.00;;;;5087541;28;20759;-79
2023/05/27 09:51:34;;;;;;;5.95;2.10;;;;;25.90;102532.00;;;;5087641;28;20210;-80
2023/05/27 09:54:02;;;;;;;4.68;2.47;;;;;26.00;102532.00;;;;5087898;28;20688;-80
2023/05/27 09:56:30;;;;;;;5.75;2.60;;;;;26.10;102532.00;;;;5087015;28;20230;-79
2023/05/27 09:59:00;;;;;;;4.13;2.58;;;;;26.10;102530.00;;;;5088476;28;20202;-80
2023/05/27 10:01:29;;;;;;;6.15;2.65;;;;;26.20;102534.00;;;;5087688;28;20202;-80
2023/05/27 10:03:57;;;;;;;8.85;2.80;;;;;26.30;102529.00;;;;5087348;28;20201;-80
2023/05/27 10:06:25;;;;;;;8.57;2.97;;;;;26.40;102524.00;;;;5087321;28;20202;-80
2023/05/27 10:08:53;;;;;;;6.47;2.78;;;;;26.40;102520.00;;;;5087762;28;20198;-80
2023/05/27 10:11:21;;;;;;;5.60;2.30;;;;;26.50;102521.00;;;;5087804;28;20252;-80
2023/05/27 10:13:49;;;;;;;5.22;2.50;;;;;26.50;102513.00;;;;5087481;28;20206;-80
2023/05/27 10:16:22;;;;;;;10.45;3.38;;;;;26.60;102517.00;;;;5087127;28;20226;-80
2023/05/27 10:18:53;;;;;;;6.93;2.78;;;;;26.70;102515.00;;;;5087753;28;20260;-79
2023/05/27 10:21:22;;;;;;;5.80;2.65;;;;;26.70;102508.00;;;;5087886;28;20202;-79
2023/05/27 10:23:56;;;;;;;7.00;2.92;;;;;26.80;102503.00;;;;5087321;28;20637;-79
2023/05/27 10:26:33;;;;;;;6.47;2.70;;;;;26.80;102509.00;;;;5087330;28;21260;-81
2023/05/27 10:29:07;;;;;;;7.55;3.38;;;;;26.90;102500.00;;;;5088033;28;20201;-80
2023/05/27 10:31:37;;;;;;;6.82;2.83;;;;;27.00;102497.00;;;;5087656;28;20835;-80
2023/05/27 10:34:06;;;;;;;6.32;2.05;;;;;27.10;102490.00;;;;5087455;28;20210;-80
2023/05/27 10:36:36;;;;;;;4.13;2.13;;;;;27.10;102494.00;;;;5087347;28;20702;-79
2023/05/27 10:39:06;;;;;;;10.18;3.78;;;;;27.10;102493.00;;;;5067264;28;20203;-80
2023/05/27 10:41:41;;;;;;;4.38;2.50;;;;;27.10;102487.00;;;;5067226;28;20306;-80
2023/05/27 10:44:09;;;;;;;6.40;2.97;;;;;27.20;102488.00;;;;5066721;28;20256;-80
2023/05/27 10:46:42;;;;;;;4.97;2.45;;;;;27.20;102494.00;;;;5071468;28;20210;-80
2023/05/27 10:49:17;;;;;;;8.13;2.65;;;;;27.30;102481.00;;;;5071264;28;20214;-80
2023/05/27 10:51:44;;;;;;;9.55;2.78;;;;;27.40;102479.00;;;;5078884;28;20202;-79
2023/05/27 10:54:12;;;;;;;5.50;2.67;;;;;27.40;102472.00;;;;5091774;28;20259;-79
2023/05/27 10:56:50;;;;;;;8.55;2.75;;;;;27.40;102468.00;;;;5091655;28;20229;-80
2023/05/27 10:59:22;;;;;;;6.57;2.00;;;;;27.50;102470.00;;;;5091220;28;20232;-82
2023/05/27 11:01:53;;;;;;;4.90;2.75;;;;;27.50;102462.00;;;;5091851;28;20251;-79
2023/05/27 11:04:21;;;;;;;5.28;2.60;;;;;27.60;102465.00;;;;5091517;28;20283;-80
2023/05/27 11:06:59;;;;;;;6.55;2.78;;;;;27.40;102467.00;;;;5091448;28;20195;-80
2023/05/27 11:09:27;;;;;;;5.68;2.67;;;;;27.50;102454.00;;;;5091077;28;20248;-80
2023/05/27 11:11:54;;;;;;;15.40;3.33;;;;;27.50;102460.00;;;;5091703;28;20281;-80
2023/05/27 11:14:21;;;;;;;9.02;2.67;;;;;27.50;102452.00;;;;5091392;28;20286;-80
2023/05/27 11:16:51;;;;;;;7.03;2.47;;;;;27.50;102449.00;;;;5091088;28;20218;-80
2023/05/27 11:19:19;;;;;;;4.32;1.88;;;;;27.50;102441.00;;;;5090659;28;20202;-80
2023/05/27 11:21:46;;;;;;;5.75;2.38;;;;;27.50;102435.00;;;;5090091;28;20626;-80
2023/05/27 11:24:16;;;;;;;7.78;2.63;;;;;27.50;102426.00;;;;5090876;28;20261;-79
2023/05/27 11:26:46;;;;;;;11.45;2.60;;;;;27.50;102427.00;;;;5090322;28;20233;-80
2023/05/27 11:29:13;;;;;;;4.43;2.35;;;;;27.50;102429.00;;;;5090003;28;20194;-80
2023/05/27 11:31:42;;;;;;;6.70;2.20;;;;;27.50;102423.00;;;;5090493;28;20572;-80
2023/05/27 11:34:15;;;;;;;4.97;2.50;;;;;27.50;102419.00;;;;5089763;28;20197;-80
2023/05/27 11:36:45;;;;;;;5.32;2.38;;;;;27.60;102412.00;;;;5090453;28;20241;-80
2023/05/27 11:39:16;;;;;;;9.23;3.08;;;;;27.60;102414.00;;;;5090348;28;20296;-80
2023/05/27 11:41:51;;;;;;;6.25;2.38;;;;;27.50;102407.00;;;;5090203;28;20283;-80
2023/05/27 11:44:19;;;;;;;4.35;2.55;;;;;27.60;102403.00;;;;5089218;28;20233;-81
2023/05/27 11:46:48;;;;;;;10.23;3.15;;;;;27.60;102398.00;;;;5090226;28;20687;-79
2023/05/27 11:49:18;;;;;;;6.18;2.45;;;;;27.50;102395.00;;;;5089529;28;20567;-81
2023/05/27 11:51:47;;;;;;;5.38;2.40;;;;;27.50;102394.00;;;;5089932;28;20194;-80
2023/05/27 11:54:20;;;;;;;7.10;2.50;;;;;27.50;102389.00;;;;5089844;28;20194;-80
2023/05/27 11:56:48;;;;;;;6.60;2.33;;;;;27.60;102392.00;;;;5089343;28;20317;-81
2023/05/27 11:59:15;;;;;;;4.95;2.35;;;;;27.60;102385.00;;;;5088529;28;20216;-79
2023/05/27 12:01:43;;;;;;;6.88;2.40;;;;;27.60;102384.00;;;;5089973;28;20284;-80
2023/05/27 12:04:11;;;;;;;6.93;2.83;;;;;27.70;102377.00;;;;5089543;28;20225;-80
2023/05/27 12:06:40;;;;;;;5.57;2.33;;;;;27.70;102371.00;;;;5090214;28;20198;-80
2023/05/27 12:09:08;;;;;;;7.05;2.83;;;;;27.70;102366.00;;;;5089218;28;20244;-80
2023/05/27 12:11:36;;;;;;;7.57;3.05;;;;;27.70;102365.00;;;;5089818;28;20194;-79
2023/05/27 12:14:03;;;;;;;7.55;2.55;;;;;27.70;102357.00;;;;5089592;28;20548;-80